createdAt,value
2023-04-16T00:00:41.173Z,10.13
2023-04-16T00:03:14.658Z,10.15
2023-04-16T00:05:45.554Z,10.14
2023-04-16T00:08:16.717Z,10.16
2023-04-16T00:10:47.441Z,10.17
2023-04-16T00:13:18.122Z,10.12
2023-04-16T00:15:48.855Z,10.03
2023-04-16T00:18:22.421Z,10.01
2023-04-16T00:20:53.696Z,10.00
2023-04-16T00:23:25.437Z,9.94
2023-04-16T00:25:57.448Z,9.92
2023-04-16T00:28:28.210Z,9.91
2023-04-16T00:30:59.700Z,9.80
2023-04-16T00:33:33.113Z,9.83
2023-04-16T00:36:04.510Z,9.79
2023-04-16T00:38:35.245Z,9.75
2023-04-16T00:41:06.291Z,9.70
2023-04-16T00:43:36.978Z,9.67
2023-04-16T00:46:09.067Z,9.64
2023-04-16T00:48:44.263Z,9.62
2023-04-16T00:51:15.201Z,9.64
2023-04-16T00:53:47.472Z,9.68
2023-04-16T00:56:18.893Z,9.69
2023-04-16T00:58:49.570Z,9.68
2023-04-16T01:01:20.503Z,9.65
2023-04-16T01:03:54.207Z,9.51
2023-04-16T01:06:25.087Z,9.49
2023-04-16T01:08:56.181Z,9.65
2023-04-16T01:11:26.943Z,9.63
2023-04-16T01:13:57.815Z,9.60
2023-04-16T01:16:29.677Z,9.56
2023-04-16T01:19:03.214Z,9.58
2023-04-16T01:21:36.611Z,9.52
2023-04-16T01:24:07.760Z,9.46
2023-04-16T01:26:38.596Z,9.47
2023-04-16T01:29:09.676Z,9.40
2023-04-16T01:31:40.582Z,9.40
2023-04-16T01:34:19.968Z,9.33
2023-04-16T01:36:53.480Z,9.28
2023-04-16T01:39:24.296Z,9.25
2023-04-16T01:41:55.070Z,9.24
2023-04-16T01:44:26.737Z,9.18
2023-04-16T01:46:57.540Z,9.23
2023-04-16T01:49:29.385Z,9.26
2023-04-16T01:52:02.708Z,9.24
2023-04-16T01:54:33.877Z,9.23
2023-04-16T01:57:04.715Z,9.21
2023-04-16T01:59:35.442Z,9.14
2023-04-16T02:02:11.415Z,9.10
2023-04-16T02:04:43.779Z,9.06
2023-04-16T02:07:17.195Z,9.03
2023-04-16T02:09:48.193Z,9.06
2023-04-16T02:12:19.281Z,9.01
2023-04-16T02:14:51.809Z,8.90
2023-04-16T02:17:23.386Z,8.96
2023-04-16T02:19:55.158Z,8.97
2023-04-16T02:22:29.224Z,8.98
2023-04-16T02:24:59.991Z,8.93
2023-04-16T02:27:30.824Z,8.83
2023-04-16T02:30:11.505Z,8.83
2023-04-16T02:32:42.858Z,8.79
2023-04-16T02:35:14.394Z,8.67
2023-04-16T02:37:47.863Z,8.73
2023-04-16T02:40:18.820Z,8.58
2023-04-16T02:42:49.654Z,8.72
2023-04-16T02:45:20.503Z,8.73
2023-04-16T02:47:51.603Z,8.73
2023-04-16T02:50:22.431Z,8.73
2023-04-16T02:52:55.779Z,8.58
2023-04-16T02:55:26.556Z,8.64
2023-04-16T02:57:57.290Z,8.66
2023-04-16T03:00:28.022Z,8.68
2023-04-16T03:02:58.794Z,8.67
2023-04-16T03:05:29.923Z,8.69
2023-04-16T03:08:03.483Z,8.65
2023-04-16T03:10:35.223Z,8.61
2023-04-16T03:13:07.048Z,8.56
2023-04-16T03:15:37.908Z,8.59
2023-04-16T03:18:08.961Z,8.57
2023-04-16T03:20:39.676Z,8.45
2023-04-16T03:23:13.222Z,8.56
2023-04-16T03:25:46.893Z,8.57
2023-04-16T03:28:21.234Z,8.59
2023-04-16T03:30:55.787Z,8.62
2023-04-16T03:33:26.532Z,8.59
2023-04-16T03:36:01.129Z,8.57
2023-04-16T03:38:37.155Z,8.54
2023-04-16T03:41:08.063Z,8.38
2023-04-16T03:43:39.622Z,8.40
2023-04-16T03:46:10.529Z,8.38
2023-04-16T03:48:41.467Z,8.40
2023-04-16T03:51:12.144Z,8.36
2023-04-16T03:53:46.202Z,8.46
2023-04-16T03:56:18.390Z,8.51
2023-04-16T03:58:49.265Z,8.52
2023-04-16T04:01:20.160Z,8.51
2023-04-16T04:03:51.606Z,8.29
2023-04-16T04:06:22.575Z,8.51
2023-04-16T04:08:56.067Z,8.45
2023-04-16T04:11:26.977Z,8.58
2023-04-16T04:13:58.514Z,8.60
2023-04-16T04:16:29.315Z,8.57
2023-04-16T04:19:02.537Z,8.54
2023-04-16T04:21:33.515Z,8.51
2023-04-16T04:24:07.225Z,8.53
2023-04-16T04:26:38.242Z,8.51
2023-04-16T04:29:09.569Z,8.53
2023-04-16T04:31:41.136Z,8.59
2023-04-16T04:34:12.271Z,8.55
2023-04-16T04:36:43.218Z,8.53
2023-04-16T04:39:20.829Z,8.51
2023-04-16T04:41:53.220Z,8.47
2023-04-16T04:44:24.216Z,8.46
2023-04-16T04:46:55.748Z,8.49
2023-04-16T04:49:26.622Z,8.50
2023-04-16T04:51:57.515Z,8.56
2023-04-16T04:54:31.326Z,8.57
2023-04-16T04:57:02.622Z,8.55
2023-04-16T04:59:34.149Z,8.55
2023-04-16T05:02:05.864Z,8.54
2023-04-16T05:04:36.593Z,8.56
2023-04-16T05:07:07.410Z,8.40
2023-04-16T05:09:40.809Z,8.56
2023-04-16T05:12:11.981Z,8.62
2023-04-16T05:14:42.584Z,8.60
2023-04-16T05:17:13.615Z,8.59
2023-04-16T05:19:44.720Z,8.50
2023-04-16T05:22:19.193Z,8.65
2023-04-16T05:24:52.639Z,8.64
2023-04-16T05:27:23.309Z,8.59
2023-04-16T05:29:54.118Z,8.63
2023-04-16T05:32:26.211Z,8.54
2023-04-16T05:34:57.211Z,8.66
2023-04-16T05:37:27.944Z,8.69
2023-04-16T05:40:01.202Z,8.66
2023-04-16T05:42:32.340Z,8.66
2023-04-16T05:45:05.857Z,8.61
2023-04-16T05:47:36.763Z,8.65
2023-04-16T05:50:08.030Z,8.68
2023-04-16T05:52:39.100Z,8.71
2023-04-16T05:55:13.593Z,8.74
2023-04-16T05:57:44.411Z,8.80
2023-04-16T06:00:15.747Z,8.78
2023-04-16T06:02:46.690Z,8.83
2023-04-16T06:05:17.736Z,8.79
2023-04-16T06:07:48.546Z,8.84
2023-04-16T06:10:22.158Z,8.92
2023-04-16T06:12:52.987Z,8.91
2023-04-16T06:15:23.947Z,8.87
2023-04-16T06:17:54.584Z,8.83
2023-04-16T06:20:25.630Z,8.83
2023-04-16T06:22:56.424Z,8.90
2023-04-16T06:25:29.754Z,8.89
2023-04-16T06:28:00.489Z,8.89
2023-04-16T06:30:31.359Z,8.96
2023-04-16T06:33:02.325Z,9.00
2023-04-16T06:35:33.278Z,8.96
2023-04-16T06:38:04.092Z,8.98
2023-04-16T06:40:37.746Z,9.02
2023-04-16T06:43:08.820Z,8.97
2023-04-16T06:45:39.764Z,9.08
2023-04-16T06:48:10.459Z,9.06
2023-04-16T06:50:41.486Z,9.06
2023-04-16T06:53:12.266Z,9.08
2023-04-16T06:55:45.711Z,9.04
2023-04-16T06:58:16.919Z,9.06
2023-04-16T07:00:48.257Z,9.20
2023-04-16T07:03:19.435Z,9.32
2023-04-16T07:05:50.418Z,9.36
2023-04-16T07:08:21.104Z,9.43
2023-04-16T07:10:54.530Z,9.55
2023-04-16T07:13:25.404Z,9.51
2023-04-16T07:15:56.248Z,9.42
2023-04-16T07:18:26.872Z,9.38
2023-04-16T07:20:57.724Z,9.39
2023-04-16T07:23:28.442Z,9.53
2023-04-16T07:26:01.854Z,9.60
2023-04-16T07:28:32.496Z,9.57
2023-04-16T07:31:03.350Z,9.60
2023-04-16T07:33:34.004Z,9.66
2023-04-16T07:36:05.136Z,9.65
2023-04-16T07:38:35.811Z,9.68
2023-04-16T07:41:09.352Z,9.74
2023-04-16T07:43:40.352Z,9.82
2023-04-16T07:46:11.164Z,9.88
2023-04-16T07:48:41.925Z,9.81
2023-04-16T07:51:12.640Z,9.80
2023-04-16T07:53:43.761Z,9.71
2023-04-16T07:56:17.050Z,9.69
2023-04-16T07:58:47.804Z,9.70
2023-04-16T08:01:18.819Z,9.73
2023-04-16T08:03:49.849Z,9.76
2023-04-16T08:06:20.767Z,9.81
2023-04-16T08:08:53.450Z,9.82
2023-04-16T08:11:27.556Z,9.87
2023-04-16T08:13:58.946Z,9.87
2023-04-16T08:16:29.777Z,10.04
2023-04-16T08:19:01.315Z,10.03
2023-04-16T08:21:32.029Z,10.01
2023-04-16T08:24:02.709Z,9.98
2023-04-16T08:26:36.139Z,9.93
2023-04-16T08:29:07.201Z,10.01
2023-04-16T08:31:38.397Z,10.00
2023-04-16T08:34:11.631Z,10.10
2023-04-16T08:36:46.196Z,10.18
2023-04-16T08:39:17.300Z,10.28
2023-04-16T08:41:52.966Z,10.47
2023-04-16T08:44:28.556Z,10.43
2023-04-16T08:47:01.322Z,10.35
2023-04-16T08:49:33.032Z,10.41
2023-04-16T08:52:04.978Z,10.40
2023-04-16T08:54:41.876Z,10.33
2023-04-16T08:57:19.573Z,10.24
2023-04-16T08:59:51.177Z,10.21
2023-04-16T09:02:22.202Z,10.24
2023-04-16T09:04:54.148Z,10.30
2023-04-16T09:07:27.031Z,10.29
2023-04-16T09:09:57.987Z,10.26
2023-04-16T09:12:31.417Z,10.29
2023-04-16T09:15:04.965Z,10.30
2023-04-16T09:17:37.737Z,10.26
2023-04-16T09:20:12.704Z,10.26
2023-04-16T09:22:43.606Z,10.31
2023-04-16T09:25:14.625Z,10.27
2023-04-16T09:27:48.631Z,10.31
2023-04-16T09:30:24.824Z,10.27
2023-04-16T09:33:15.865Z,10.23
2023-04-16T09:35:50.677Z,10.23
2023-04-16T09:38:21.926Z,10.18
2023-04-16T09:41:09.345Z,10.12
2023-04-16T09:43:52.439Z,10.24
2023-04-16T09:46:23.735Z,10.28
2023-04-16T09:48:54.471Z,10.30
2023-04-16T09:51:26.427Z,10.24
2023-04-16T09:53:59.857Z,10.30
2023-04-16T09:56:30.862Z,10.25
2023-04-16T09:59:05.661Z,10.06
2023-04-16T10:01:36.274Z,10.18
2023-04-16T10:04:10.411Z,10.18
2023-04-16T10:06:41.139Z,10.20
2023-04-16T10:09:12.748Z,10.16
2023-04-16T10:11:43.820Z,10.13
2023-04-16T10:14:17.219Z,10.07
2023-04-16T10:16:48.421Z,9.99
2023-04-16T10:19:19.957Z,10.03
2023-04-16T10:21:51.337Z,10.12
2023-04-16T10:24:22.197Z,10.18
2023-04-16T10:26:54.703Z,10.18
2023-04-16T10:29:30.156Z,9.97
2023-04-16T10:32:02.722Z,9.83
2023-04-16T10:34:35.163Z,9.82
2023-04-16T10:37:06.002Z,9.82
2023-04-16T10:39:40.294Z,9.84
2023-04-16T10:42:13.066Z,9.92
2023-04-16T10:44:49.297Z,9.92
2023-04-16T10:47:20.329Z,9.91
2023-04-16T10:49:51.369Z,9.92
2023-04-16T10:52:22.696Z,9.99
2023-04-16T10:54:56.350Z,10.12
2023-04-16T10:57:32.593Z,10.18
2023-04-16T11:00:06.467Z,10.29
2023-04-16T11:02:37.303Z,10.41
2023-04-16T11:05:09.808Z,10.37
2023-04-16T11:07:40.660Z,10.42
2023-04-16T11:10:16.263Z,10.46
2023-04-16T11:12:49.809Z,10.38
2023-04-16T11:15:23.622Z,10.46
2023-04-16T11:17:55.056Z,10.45
2023-04-16T11:20:28.141Z,10.48
2023-04-16T11:23:00.084Z,10.49
2023-04-16T11:25:34.317Z,10.49
2023-04-16T11:28:05.212Z,10.36
2023-04-16T11:30:40.950Z,10.27
2023-04-16T11:33:12.989Z,10.27
2023-04-16T11:35:46.092Z,10.24
2023-04-16T11:38:16.768Z,10.32
2023-04-16T11:40:48.001Z,10.48
2023-04-16T11:43:20.016Z,10.52
2023-04-16T11:46:12.869Z,10.48
2023-04-16T11:48:51.602Z,10.37
2023-04-16T11:51:23.738Z,10.61
2023-04-16T11:53:56.383Z,10.76
2023-04-16T11:56:30.623Z,10.90
2023-04-16T11:59:14.023Z,10.96
2023-04-16T12:01:50.141Z,11.03
2023-04-16T12:04:24.720Z,11.15
2023-04-16T12:07:08.782Z,11.23
2023-04-16T12:09:40.947Z,11.23
2023-04-16T12:12:31.593Z,11.20
2023-04-16T12:15:04.101Z,11.21
2023-04-16T12:17:39.294Z,11.10
2023-04-16T12:20:13.089Z,11.22
2023-04-16T12:22:52.981Z,11.08
2023-04-16T12:25:23.706Z,11.23
2023-04-16T12:27:58.704Z,11.18
2023-04-16T12:30:31.042Z,11.24
2023-04-16T12:33:22.097Z,11.30
2023-04-16T12:35:52.861Z,11.29
2023-04-16T12:38:24.686Z,11.32
2023-04-16T12:40:57.403Z,11.24
2023-04-16T12:43:28.746Z,11.35
2023-04-16T12:45:59.470Z,11.51
2023-04-16T12:48:32.800Z,11.60
2023-04-16T12:51:03.426Z,11.77
2023-04-16T12:53:34.048Z,12.05
2023-04-16T12:56:04.904Z,12.37
2023-04-16T12:58:35.647Z,12.55
2023-04-16T13:01:06.588Z,12.74
2023-04-16T13:03:39.977Z,12.93
2023-04-16T13:06:11.500Z,13.14
2023-04-16T13:08:42.498Z,13.34
2023-04-16T13:11:13.743Z,13.49
2023-04-16T13:13:44.803Z,13.58
2023-04-16T13:16:15.544Z,13.73
2023-04-16T13:18:48.927Z,13.69
2023-04-16T13:21:19.841Z,13.43
2023-04-16T13:23:50.779Z,13.82
2023-04-16T13:26:22.306Z,13.88
2023-04-16T13:28:53.300Z,14.01
2023-04-16T13:31:24.441Z,14.18
2023-04-16T13:33:57.718Z,14.30
2023-04-16T13:36:30.248Z,14.41
2023-04-16T13:39:01.014Z,14.33
2023-04-16T13:41:32.003Z,14.01
2023-04-16T13:44:02.799Z,13.74
2023-04-16T13:46:33.729Z,13.54
2023-04-16T13:49:07.124Z,13.72
2023-04-16T13:51:37.978Z,13.76
2023-04-16T13:54:08.885Z,13.64
2023-04-16T13:56:39.642Z,13.63
2023-04-16T13:59:10.892Z,13.79
2023-04-16T14:01:41.986Z,13.88
2023-04-16T14:04:16.235Z,13.95
2023-04-16T14:06:47.309Z,14.06
2023-04-16T14:09:18.481Z,14.05
2023-04-16T14:11:49.064Z,13.90
2023-04-16T14:14:19.790Z,13.72
2023-04-16T14:16:50.918Z,13.80
2023-04-16T14:19:24.498Z,13.64
2023-04-16T14:21:55.192Z,13.50
2023-04-16T14:24:25.967Z,13.35
2023-04-16T14:26:56.683Z,13.25
2023-04-16T14:29:27.326Z,13.24
2023-04-16T14:31:58.129Z,13.22
2023-04-16T14:34:31.590Z,13.28
2023-04-16T14:37:02.550Z,13.26
2023-04-16T14:39:33.729Z,13.28
2023-04-16T14:42:04.477Z,13.48
2023-04-16T14:44:35.942Z,13.63
2023-04-16T14:47:06.956Z,13.67
2023-04-16T14:49:40.268Z,13.73
2023-04-16T14:52:11.079Z,13.64
2023-04-16T14:54:41.785Z,13.61
2023-04-16T14:57:12.606Z,13.45
2023-04-16T14:59:43.304Z,13.28
2023-04-16T15:02:14.450Z,13.23
2023-04-16T15:04:47.770Z,13.17
2023-04-16T15:07:18.424Z,13.14
2023-04-16T15:09:49.121Z,13.24
2023-04-16T15:12:20.055Z,13.28
2023-04-16T15:14:50.787Z,13.11
2023-04-16T15:17:22.266Z,13.01
2023-04-16T15:19:55.915Z,12.96
2023-04-16T15:22:26.802Z,12.97
2023-04-16T15:24:57.688Z,12.95
2023-04-16T15:27:28.906Z,12.95
2023-04-16T15:29:59.899Z,13.00
2023-04-16T15:32:30.916Z,13.01
2023-04-16T15:35:06.225Z,12.89
2023-04-16T15:37:37.018Z,12.78
2023-04-16T15:40:09.350Z,12.73
2023-04-16T15:42:40.920Z,12.74
2023-04-16T15:45:12.678Z,12.80
2023-04-16T15:47:43.353Z,12.69
2023-04-16T15:50:16.735Z,12.63
2023-04-16T15:52:48.451Z,12.82
2023-04-16T15:55:21.124Z,12.94
2023-04-16T15:57:52.520Z,13.02
2023-04-16T16:00:24.417Z,12.99
2023-04-16T16:02:55.286Z,13.11
2023-04-16T16:05:28.596Z,13.00
2023-04-16T16:08:01.912Z,12.94
2023-04-16T16:10:32.526Z,13.00
2023-04-16T16:13:05.570Z,13.18
2023-04-16T16:15:36.475Z,13.32
2023-04-16T16:18:07.206Z,13.40
2023-04-16T16:20:40.837Z,13.39
2023-04-16T16:23:11.804Z,13.41
2023-04-16T16:25:42.938Z,13.32
2023-04-16T16:28:13.874Z,13.27
2023-04-16T16:30:45.149Z,13.23
2023-04-16T16:33:16.541Z,13.24
2023-04-16T16:35:50.021Z,13.14
2023-04-16T16:38:21.109Z,13.08
2023-04-16T16:40:54.255Z,13.11
2023-04-16T16:43:25.361Z,13.01
2023-04-16T16:45:56.093Z,12.93
2023-04-16T16:48:26.643Z,12.86
2023-04-16T16:51:00.125Z,12.83
2023-04-16T16:53:30.915Z,12.74
2023-04-16T16:56:01.829Z,12.64
2023-04-16T16:58:32.402Z,12.57
2023-04-16T17:01:03.365Z,12.56
2023-04-16T17:03:34.222Z,12.46
2023-04-16T17:06:07.977Z,12.35
2023-04-16T17:08:39.385Z,12.27
2023-04-16T17:11:10.055Z,12.28
2023-04-16T17:13:40.812Z,12.26
2023-04-16T17:16:12.053Z,12.07
2023-04-16T17:18:42.802Z,12.01
2023-04-16T17:21:16.788Z,11.94
2023-04-16T17:23:47.344Z,11.88
2023-04-16T17:26:18.094Z,11.85
2023-04-16T17:28:49.042Z,11.80
2023-04-16T17:31:19.923Z,11.72
2023-04-16T17:33:50.857Z,11.69
2023-04-16T17:36:25.649Z,11.71
2023-04-16T17:38:56.232Z,11.71
2023-04-16T17:41:26.973Z,11.75
2023-04-16T17:43:57.620Z,11.79
2023-04-16T17:46:28.481Z,11.75
2023-04-16T17:48:59.237Z,11.72
2023-04-16T17:51:32.834Z,11.73
2023-04-16T17:54:03.832Z,11.70
2023-04-16T17:56:34.897Z,11.77
2023-04-16T17:59:06.230Z,11.69
2023-04-16T18:01:36.885Z,11.63
2023-04-16T18:04:07.786Z,11.64
2023-04-16T18:06:41.064Z,11.59
2023-04-16T18:09:12.686Z,11.56
2023-04-16T18:11:43.568Z,11.52
2023-04-16T18:14:16.975Z,11.50
2023-04-16T18:16:49.840Z,11.45
2023-04-16T18:19:20.759Z,11.40
2023-04-16T18:21:54.020Z,11.33
2023-04-16T18:24:24.682Z,11.30
2023-04-16T18:26:55.436Z,11.23
2023-04-16T18:29:26.487Z,11.20
2023-04-16T18:31:57.228Z,11.00
2023-04-16T18:34:29.818Z,11.03
2023-04-16T18:37:03.520Z,10.81
2023-04-16T18:39:36.092Z,10.94
2023-04-16T18:42:06.953Z,10.86
2023-04-16T18:44:37.572Z,10.82
2023-04-16T18:47:08.401Z,10.73
2023-04-16T18:49:39.008Z,10.56
2023-04-16T18:52:12.331Z,10.62
2023-04-16T18:54:43.749Z,10.57
2023-04-16T18:57:16.894Z,10.46
2023-04-16T18:59:47.867Z,10.38
2023-04-16T19:02:18.601Z,10.32
2023-04-16T19:04:49.785Z,10.23
2023-04-16T19:07:22.951Z,10.19
2023-04-16T19:09:53.551Z,10.10
2023-04-16T19:12:25.006Z,10.11
2023-04-16T19:14:56.705Z,10.06
2023-04-16T19:17:28.330Z,9.99
2023-04-16T19:20:00.050Z,10.00
2023-04-16T19:22:34.397Z,9.97
2023-04-16T19:25:05.519Z,9.97
2023-04-16T19:27:37.355Z,9.97
2023-04-16T19:30:10.987Z,9.98
2023-04-16T19:32:42.601Z,9.96
2023-04-16T19:35:15.338Z,10.00
2023-04-16T19:37:49.754Z,10.04
2023-04-16T19:40:21.982Z,10.03
2023-04-16T19:42:53.645Z,10.03
2023-04-16T19:45:27.499Z,10.00
2023-04-16T19:47:59.622Z,10.06
2023-04-16T19:50:31.720Z,10.09
2023-04-16T19:53:06.142Z,10.05
2023-04-16T19:55:38.080Z,10.05
2023-04-16T19:58:10.281Z,9.91
2023-04-16T20:00:43.699Z,10.03
2023-04-16T20:03:15.749Z,10.04
2023-04-16T20:05:46.809Z,10.06
2023-04-16T20:08:20.619Z,10.06
2023-04-16T20:10:51.419Z,10.12
2023-04-16T20:13:22.313Z,10.01
2023-04-16T20:15:55.690Z,10.15
2023-04-16T20:18:29.413Z,10.18
2023-04-16T20:21:00.242Z,10.20
2023-04-16T20:23:33.382Z,10.20
2023-04-16T20:26:04.714Z,10.16
2023-04-16T20:28:35.986Z,10.16
2023-04-16T20:31:07.389Z,10.17
2023-04-16T20:33:39.272Z,10.17
2023-04-16T20:36:11.133Z,10.19
2023-04-16T20:38:45.218Z,10.18
2023-04-16T20:41:20.602Z,10.15
2023-04-16T20:43:53.453Z,10.13
2023-04-16T20:46:30.408Z,10.11
2023-04-16T20:49:01.271Z,10.12
2023-04-16T20:51:32.392Z,10.08
2023-04-16T20:54:06.434Z,10.10
2023-04-16T20:56:45.103Z,10.11
2023-04-16T20:59:16.175Z,10.12
2023-04-16T21:01:48.521Z,10.09
2023-04-16T21:04:22.840Z,10.08
2023-04-16T21:06:55.368Z,10.05
2023-04-16T21:09:28.675Z,10.10
2023-04-16T21:11:59.403Z,10.07
2023-04-16T21:14:30.044Z,10.07
2023-04-16T21:17:01.280Z,10.05
2023-04-16T21:19:32.145Z,10.00
2023-04-16T21:22:02.903Z,10.03
2023-04-16T21:24:37.373Z,10.06
2023-04-16T21:27:08.031Z,9.96
2023-04-16T21:29:39.125Z,10.01
2023-04-16T21:32:09.929Z,10.01
2023-04-16T21:34:40.898Z,9.98
2023-04-16T21:37:11.646Z,9.98
2023-04-16T21:39:44.914Z,10.02
2023-04-16T21:42:15.995Z,10.08
2023-04-16T21:44:47.029Z,10.02
2023-04-16T21:47:17.785Z,9.98
2023-04-16T21:49:48.396Z,9.98
2023-04-16T21:52:21.008Z,9.89
2023-04-16T21:54:57.603Z,9.84
2023-04-16T21:57:28.338Z,9.86
2023-04-16T21:59:58.991Z,9.90
2023-04-16T22:02:29.773Z,9.90
2023-04-16T22:05:00.855Z,9.87
2023-04-16T22:07:31.488Z,9.89
2023-04-16T22:10:04.919Z,9.84
2023-04-16T22:12:37.909Z,9.79
2023-04-16T22:15:10.462Z,9.76
2023-04-16T22:17:41.855Z,9.70
2023-04-16T22:20:13.662Z,9.67
2023-04-16T22:22:44.732Z,9.71
2023-04-16T22:25:18.534Z,9.73
2023-04-16T22:27:49.447Z,9.71
2023-04-16T22:30:20.943Z,9.70
2023-04-16T22:32:52.422Z,9.70
2023-04-16T22:35:23.733Z,9.73
2023-04-16T22:37:54.811Z,9.76
2023-04-16T22:40:34.210Z,9.74
2023-04-16T22:43:05.037Z,9.70
2023-04-16T22:45:36.110Z,9.69
2023-04-16T22:48:07.044Z,9.67
2023-04-16T22:50:37.871Z,9.69
2023-04-16T22:53:08.471Z,9.67
2023-04-16T22:55:41.582Z,9.64
2023-04-16T22:58:12.438Z,9.50
2023-04-16T23:00:43.630Z,9.53
2023-04-16T23:03:14.513Z,9.44
2023-04-16T23:05:45.148Z,9.44
2023-04-16T23:08:16.020Z,9.40
2023-04-16T23:10:49.352Z,9.38
2023-04-16T23:13:20.274Z,9.35
2023-04-16T23:15:51.107Z,9.15
2023-04-16T23:18:21.808Z,9.26
2023-04-16T23:20:54.018Z,9.34
2023-04-16T23:23:24.909Z,9.33
2023-04-16T23:25:58.283Z,9.27
2023-04-16T23:28:28.835Z,9.37
2023-04-16T23:30:59.527Z,9.36
2023-04-16T23:33:30.784Z,9.35
2023-04-16T23:36:01.826Z,9.33
2023-04-16T23:38:32.474Z,9.28
2023-04-16T23:41:05.919Z,9.28
2023-04-16T23:43:37.037Z,9.26
2023-04-16T23:46:07.751Z,9.26
2023-04-16T23:48:38.457Z,9.26
2023-04-16T23:51:09.161Z,9.26
2023-04-16T23:53:40.959Z,9.13
2023-04-16T23:56:15.607Z,9.18
2023-04-16T23:58:46.375Z,9.18
